createdAt,value
2022-10-03T00:05:00.252Z,9.70
2022-10-03T00:10:34.046Z,9.70
2022-10-03T00:15:46.354Z,9.70
2022-10-03T00:21:21.933Z,9.70
2022-10-03T00:26:37.431Z,9.80
2022-10-03T00:32:04.342Z,9.70
2022-10-03T00:37:50.317Z,9.70
2022-10-03T00:43:29.820Z,9.70
2022-10-03T00:49:09.435Z,9.70
2022-10-03T00:54:50.668Z,9.70
2022-10-03T01:00:11.115Z,9.70
2022-10-03T01:05:27.756Z,9.70
2022-10-03T01:11:08.968Z,9.80
2022-10-03T01:16:21.306Z,9.70
2022-10-03T01:21:40.058Z,9.70
2022-10-03T01:27:04.697Z,9.70
2022-10-03T01:32:38.911Z,9.70
2022-10-03T01:37:43.582Z,9.70
2022-10-03T01:43:09.692Z,9.70
2022-10-03T01:48:33.292Z,9.80
2022-10-03T01:54:07.285Z,9.80
2022-10-03T01:59:47.550Z,9.80
2022-10-03T02:05:03.387Z,9.80
2022-10-03T02:10:20.273Z,9.80
2022-10-03T02:15:31.346Z,9.80
2022-10-03T02:20:51.688Z,9.90
2022-10-03T02:26:37.999Z,9.80
2022-10-03T02:32:05.676Z,9.80
2022-10-03T02:37:36.683Z,9.80
2022-10-03T02:43:00.480Z,9.80
2022-10-03T02:48:27.176Z,9.80
2022-10-03T02:53:30.159Z,9.80
2022-10-03T02:58:43.591Z,9.70
2022-10-03T03:03:45.326Z,9.80
2022-10-03T03:09:29.421Z,9.80
2022-10-03T03:15:13.800Z,9.80
2022-10-03T03:20:51.189Z,9.80
2022-10-03T03:26:05.086Z,9.80
2022-10-03T03:31:29.842Z,9.80
2022-10-03T03:37:05.416Z,9.80
2022-10-03T03:42:40.795Z,9.80
2022-10-03T03:48:08.383Z,9.80
2022-10-03T03:53:26.137Z,9.80
2022-10-03T03:59:03.277Z,9.80
2022-10-03T04:04:37.404Z,9.90
2022-10-03T04:10:12.818Z,9.90
2022-10-03T04:15:29.944Z,9.90
2022-10-03T04:20:51.487Z,9.90
2022-10-03T04:26:26.727Z,9.90
2022-10-03T04:31:49.650Z,9.90
2022-10-03T04:37:03.688Z,10.00
2022-10-03T04:42:31.745Z,9.90
2022-10-03T04:47:51.256Z,10.00
2022-10-03T04:53:13.715Z,10.00
2022-10-03T04:58:44.918Z,9.90
2022-10-03T05:03:54.388Z,9.90
2022-10-03T05:08:59.669Z,9.80
2022-10-03T05:14:22.477Z,9.90
2022-10-03T05:19:44.244Z,9.90
2022-10-03T05:25:29.230Z,9.90
2022-10-03T05:30:54.212Z,9.90
2022-10-03T05:36:23.311Z,9.80
2022-10-03T05:41:31.652Z,9.70
2022-10-03T05:46:45.589Z,9.70
2022-10-03T05:52:39.109Z,9.70
2022-10-03T05:58:01.695Z,9.60
2022-10-03T06:03:20.758Z,9.70
2022-10-03T06:08:57.736Z,9.70
2022-10-03T06:14:08.749Z,9.70
2022-10-03T06:20:04.598Z,9.80
2022-10-03T06:25:55.575Z,9.90
2022-10-03T06:31:13.653Z,9.80
2022-10-03T06:36:55.307Z,9.80
2022-10-03T06:42:10.386Z,9.80
2022-10-03T06:47:38.670Z,9.90
2022-10-03T06:53:08.203Z,9.80
2022-10-03T06:58:28.647Z,9.90
2022-10-03T07:03:51.329Z,9.80
2022-10-03T07:09:47.246Z,9.80
2022-10-03T07:15:02.478Z,9.90
2022-10-03T07:20:26.030Z,10.00
2022-10-03T07:31:51.518Z,9.90
2022-10-03T07:37:22.455Z,9.90
2022-10-03T07:42:51.605Z,9.80
2022-10-03T07:48:46.571Z,9.80
2022-10-03T07:54:04.986Z,9.80
2022-10-03T07:59:36.794Z,9.80
2022-10-03T08:05:07.460Z,9.90
2022-10-03T08:10:26.308Z,9.90
2022-10-03T08:15:46.749Z,9.80
2022-10-03T08:21:02.228Z,9.80
2022-10-03T08:26:14.159Z,9.90
2022-10-03T08:31:32.733Z,10.00
2022-10-03T08:37:06.481Z,10.00
2022-10-03T08:42:19.886Z,9.90
2022-10-03T08:47:32.135Z,9.90
2022-10-03T08:52:58.854Z,10.00
2022-10-03T08:58:26.341Z,10.10
2022-10-03T09:03:47.859Z,10.00
2022-10-03T09:09:23.207Z,10.20
2022-10-03T09:14:32.175Z,10.40
2022-10-03T09:19:53.124Z,10.40
2022-10-03T09:25:14.756Z,10.40
2022-10-03T09:30:56.482Z,10.50
2022-10-03T09:36:18.601Z,10.70
2022-10-03T09:41:43.228Z,10.80
2022-10-03T09:47:08.884Z,11.20
2022-10-03T09:52:45.884Z,11.30
2022-10-03T09:58:11.669Z,11.40
2022-10-03T10:03:30.145Z,11.30
2022-10-03T10:09:04.478Z,11.30
2022-10-03T10:14:29.750Z,11.30
2022-10-03T10:19:39.763Z,10.90
2022-10-03T10:25:21.405Z,10.80
2022-10-03T10:30:54.621Z,10.70
2022-10-03T10:36:35.784Z,10.70
2022-10-03T10:42:16.392Z,10.70
2022-10-03T10:47:38.452Z,10.50
2022-10-03T10:52:48.440Z,10.50
2022-10-03T10:58:54.988Z,10.50
2022-10-03T11:04:16.669Z,10.60
2022-10-03T11:16:26.762Z,10.60
2022-10-03T11:21:52.073Z,10.50
2022-10-03T11:27:40.747Z,10.60
2022-10-03T11:33:04.641Z,10.70
2022-10-03T11:38:54.517Z,10.60
2022-10-03T11:44:17.006Z,10.60
2022-10-03T11:50:12.934Z,10.60
2022-10-03T11:56:02.745Z,10.70
2022-10-03T12:01:24.589Z,10.60
2022-10-03T12:18:46.087Z,11.40
2022-10-03T12:24:21.052Z,11.20
2022-10-03T12:29:33.678Z,11.20
2022-10-03T12:34:45.458Z,11.20
2022-10-03T12:40:16.728Z,11.20
2022-10-03T12:45:44.103Z,11.30
2022-10-03T12:51:17.917Z,11.50
2022-10-03T12:56:57.915Z,11.60
2022-10-03T13:02:09.844Z,11.30
2022-10-03T13:07:55.418Z,11.30
2022-10-03T13:13:15.632Z,11.10
2022-10-03T13:18:27.848Z,10.90
2022-10-03T13:24:00.681Z,10.80
2022-10-03T13:29:03.343Z,11.10
2022-10-03T13:34:28.247Z,11.40
2022-10-03T13:39:54.535Z,11.40
2022-10-03T13:45:04.047Z,11.70
2022-10-03T13:50:34.593Z,11.60
2022-10-03T13:55:52.993Z,11.50
2022-10-03T14:01:30.447Z,11.40
2022-10-03T14:06:37.778Z,11.30
2022-10-03T14:11:53.182Z,11.40
2022-10-03T14:17:20.548Z,11.30
2022-10-03T14:22:38.612Z,11.10
2022-10-03T14:28:24.739Z,11.00
2022-10-03T14:33:33.147Z,10.90
2022-10-03T14:39:02.676Z,11.10
2022-10-03T14:44:13.687Z,11.10
2022-10-03T14:49:54.964Z,11.20
2022-10-03T14:55:02.859Z,11.20
2022-10-03T15:00:06.908Z,11.20
2022-10-03T15:05:33.354Z,11.30
2022-10-03T15:10:37.384Z,11.10
2022-10-03T15:15:46.980Z,10.90
2022-10-03T15:20:54.342Z,11.00
2022-10-03T15:25:58.988Z,10.80
2022-10-03T15:31:32.367Z,10.70
2022-10-03T15:36:41.955Z,10.80
2022-10-03T15:41:55.302Z,10.60
2022-10-03T15:47:03.012Z,10.50
2022-10-03T15:52:18.098Z,10.60
2022-10-03T15:57:37.473Z,10.50
2022-10-03T16:02:51.211Z,10.60
2022-10-03T16:07:54.038Z,10.70
2022-10-03T16:13:11.986Z,10.60
2022-10-03T16:18:54.820Z,10.60
2022-10-03T16:24:00.083Z,10.60
2022-10-03T16:29:37.790Z,10.50
2022-10-03T16:34:48.376Z,10.60
2022-10-03T16:40:04.376Z,10.60
2022-10-03T16:45:35.277Z,10.70
2022-10-03T16:50:50.022Z,10.60
2022-10-03T16:56:00.103Z,10.70
2022-10-03T17:01:26.394Z,10.60
2022-10-03T17:06:34.660Z,10.60
2022-10-03T17:11:41.747Z,10.60
2022-10-03T17:17:22.240Z,10.60
2022-10-03T17:22:44.960Z,10.50
2022-10-03T17:27:52.511Z,10.50
2022-10-03T17:33:31.245Z,10.40
2022-10-03T17:38:49.753Z,10.40
2022-10-03T17:44:07.665Z,10.40
2022-10-03T17:49:13.430Z,10.40
2022-10-03T17:54:30.159Z,10.30
2022-10-03T17:59:44.732Z,10.30
2022-10-03T18:04:53.876Z,10.40
2022-10-03T18:09:56.865Z,10.40
2022-10-03T18:15:20.953Z,10.30
2022-10-03T18:20:26.325Z,10.30
2022-10-03T18:26:19.177Z,10.30
2022-10-03T18:31:25.823Z,10.30
2022-10-03T18:36:40.263Z,10.20
2022-10-03T18:41:48.796Z,10.20
2022-10-03T18:47:14.217Z,10.10
2022-10-03T18:52:30.616Z,10.00
2022-10-03T18:57:33.633Z,10.00
2022-10-03T19:02:42.865Z,9.90
2022-10-03T19:08:13.330Z,9.90
2022-10-03T19:13:40.908Z,9.90
2022-10-03T19:19:25.484Z,9.90
2022-10-03T19:29:57.910Z,9.90
2022-10-03T19:35:05.001Z,9.90
2022-10-03T19:40:38.395Z,9.90
2022-10-03T19:45:41.679Z,10.00
2022-10-03T19:50:44.611Z,10.00
2022-10-03T19:55:48.450Z,10.10
2022-10-03T20:00:57.113Z,10.10
2022-10-03T20:06:29.991Z,10.10
2022-10-03T20:11:49.993Z,10.10
2022-10-03T20:16:58.003Z,10.10
2022-10-03T20:22:04.808Z,10.10
2022-10-03T20:27:42.696Z,10.10
2022-10-03T20:32:46.858Z,10.10
2022-10-03T20:38:02.551Z,10.10
2022-10-03T20:43:23.901Z,10.10
2022-10-03T20:48:35.583Z,10.10
2022-10-03T20:53:43.592Z,10.00
2022-10-03T20:58:58.505Z,10.00
2022-10-03T21:04:25.457Z,9.90
2022-10-03T21:10:00.719Z,9.80
2022-10-03T21:15:31.542Z,9.70
2022-10-03T21:20:42.632Z,9.80
2022-10-03T21:25:45.460Z,9.80
2022-10-03T21:31:03.181Z,9.90
2022-10-03T21:36:12.388Z,9.90
2022-10-03T21:41:40.359Z,9.90
2022-10-03T21:47:07.310Z,10.00
2022-10-03T21:52:17.904Z,10.00
2022-10-03T21:57:39.067Z,9.90
2022-10-03T22:03:07.061Z,10.00
2022-10-03T22:08:33.895Z,10.00
2022-10-03T22:13:43.731Z,10.00
2022-10-03T22:19:20.400Z,9.90
2022-10-03T22:24:40.781Z,9.90
2022-10-03T22:29:57.733Z,10.00
2022-10-03T22:35:21.073Z,9.90
2022-10-03T22:40:24.682Z,10.00
2022-10-03T22:45:29.283Z,9.90
2022-10-03T22:50:33.869Z,9.90
2022-10-03T22:55:37.677Z,9.80
2022-10-03T23:00:42.580Z,9.80
2022-10-03T23:05:53.215Z,9.90
2022-10-03T23:11:01.901Z,9.90
2022-10-03T23:16:29.890Z,9.80
2022-10-03T23:21:32.176Z,9.80
2022-10-03T23:27:11.678Z,9.70
2022-10-03T23:32:48.219Z,9.80
2022-10-03T23:37:50.376Z,9.80
2022-10-03T23:43:01.919Z,9.70
2022-10-03T23:48:12.095Z,9.80
2022-10-03T23:53:46.996Z,9.80
2022-10-03T23:58:58.476Z,9.80
